createdAt,value
2024-03-03T00:17:38.927Z,7.31
2024-03-03T00:37:38.932Z,7.43
2024-03-03T00:57:38.913Z,7.43
2024-03-03T01:17:38.894Z,7.25
2024-03-03T01:37:39.079Z,7.43
2024-03-03T01:57:39.138Z,7.43
2024-03-03T02:17:38.925Z,7.31
2024-03-03T02:37:39.104Z,7.43
2024-03-03T02:57:38.905Z,7.37
2024-03-03T03:17:38.904Z,7.31
2024-03-03T03:37:38.897Z,7.25
2024-03-03T04:17:38.886Z,7.25
2024-03-03T04:37:38.840Z,7.25
2024-03-03T04:57:38.870Z,7.18
2024-03-03T05:17:38.823Z,7.18
2024-03-03T05:37:38.905Z,7.31
2024-03-03T05:57:38.957Z,7.18
2024-03-03T06:17:38.792Z,7.18
2024-03-03T06:37:38.795Z,7.18
2024-03-03T06:57:38.800Z,7.25
2024-03-03T07:17:38.805Z,7.31
2024-03-03T07:37:38.760Z,7.18
2024-03-03T07:57:38.754Z,7.31
2024-03-03T08:17:38.748Z,7.12
2024-03-03T08:37:38.714Z,7.25
2024-03-03T08:57:38.820Z,7.25
2024-03-03T09:17:38.693Z,7.25
2024-03-03T09:37:38.678Z,7.31
2024-03-03T09:57:38.664Z,7.43
2024-03-03T10:17:38.656Z,7.37
2024-03-03T10:37:38.643Z,7.56
2024-03-03T10:57:38.597Z,7.56
2024-03-03T11:17:38.538Z,7.50
2024-03-03T11:37:38.542Z,7.68
2024-03-03T11:57:38.514Z,7.81
2024-03-03T12:17:38.486Z,7.75
2024-03-03T12:37:38.465Z,7.93
2024-03-03T12:57:38.454Z,7.75
2024-03-03T13:17:38.432Z,7.87
2024-03-03T13:37:38.420Z,7.68
2024-03-03T13:57:38.384Z,7.75
2024-03-03T14:17:38.359Z,7.93
2024-03-03T14:37:38.316Z,8.06
2024-03-03T14:57:38.301Z,8.00
2024-03-03T15:17:38.295Z,7.87
2024-03-03T15:37:38.282Z,7.75
2024-03-03T15:57:38.262Z,7.87
2024-03-03T16:17:38.235Z,7.68
2024-03-03T16:37:38.208Z,7.68
2024-03-03T16:57:38.204Z,7.56
2024-03-03T17:17:38.183Z,7.81
2024-03-03T17:37:38.149Z,7.68
2024-03-03T17:57:38.125Z,7.81
2024-03-03T18:17:38.109Z,7.81
2024-03-03T18:37:38.091Z,7.81
2024-03-03T18:57:38.078Z,7.68
2024-03-03T19:17:38.057Z,7.87
2024-03-03T19:37:38.059Z,7.87
2024-03-03T19:57:38.029Z,7.56
2024-03-03T20:17:37.991Z,7.56
2024-03-03T20:37:37.998Z,7.68
2024-03-03T20:57:37.973Z,7.43
2024-03-03T21:17:37.967Z,7.62
2024-03-03T21:37:37.966Z,7.56
2024-03-03T21:57:37.928Z,7.68
2024-03-03T22:17:37.927Z,7.56
2024-03-03T22:37:37.897Z,7.68
2024-03-03T22:57:37.900Z,7.43
2024-03-03T23:17:37.865Z,7.31
2024-03-03T23:37:37.861Z,7.56
2024-03-03T23:57:37.842Z,7.56
